createdAt,value
2023-01-04T00:00:00.415Z,0.8
2023-01-04T00:04:00.502Z,0.7
2023-01-04T00:08:00.413Z,0.6
2023-01-04T00:12:00.428Z,0.4
2023-01-04T00:16:07.330Z,0.5
2023-01-04T00:20:00.407Z,0.4
2023-01-04T00:24:00.401Z,0.4
2023-01-04T00:28:00.401Z,0.5
2023-01-04T00:32:00.404Z,0.5
2023-01-04T00:36:00.377Z,0.4
2023-01-04T00:40:00.387Z,0.3
2023-01-04T00:44:00.403Z,0.2
2023-01-04T00:48:00.422Z,0.2
2023-01-04T00:52:00.407Z,0.2
2023-01-04T00:56:00.392Z,0.1
2023-01-04T01:00:00.440Z,0.0
2023-01-04T01:04:00.494Z,0.0
2023-01-04T01:08:00.403Z,0.2
2023-01-04T01:12:00.391Z,0.1
2023-01-04T01:16:00.512Z,0.0
2023-01-04T01:20:00.429Z,0.3
2023-01-04T01:24:00.408Z,0.3
2023-01-04T01:28:00.600Z,0.4
2023-01-04T01:32:00.559Z,0.4
2023-01-04T01:36:00.380Z,0.4
2023-01-04T01:40:00.396Z,0.5
2023-01-04T01:44:00.385Z,0.6
2023-01-04T01:48:00.394Z,0.5
2023-01-04T01:52:00.398Z,0.5
2023-01-04T01:56:00.374Z,0.5
2023-01-04T02:00:00.396Z,0.7
2023-01-04T02:04:00.456Z,0.7
2023-01-04T02:08:00.443Z,0.6
2023-01-04T02:12:00.387Z,0.6
2023-01-04T02:16:00.439Z,0.5
2023-01-04T02:20:00.401Z,0.6
2023-01-04T02:24:00.408Z,0.5
2023-01-04T02:28:00.418Z,0.5
2023-01-04T02:32:00.419Z,0.6
2023-01-04T02:36:00.425Z,0.7
2023-01-04T02:40:00.401Z,0.7
2023-01-04T02:44:00.761Z,0.8
2023-01-04T02:48:00.401Z,0.8
2023-01-04T02:52:00.406Z,0.8
2023-01-04T02:56:00.404Z,1.1
2023-01-04T03:00:00.413Z,1.3
2023-01-04T03:04:00.430Z,1.2
2023-01-04T03:08:00.399Z,1.1
2023-01-04T03:12:00.481Z,1.2
2023-01-04T03:16:00.449Z,1.5
2023-01-04T03:20:00.381Z,1.6
2023-01-04T03:24:00.361Z,1.7
2023-01-04T03:28:00.393Z,1.5
2023-01-04T03:32:00.637Z,1.6
2023-01-04T03:36:00.378Z,1.9
2023-01-04T03:40:00.398Z,1.9
2023-01-04T03:44:00.389Z,1.9
2023-01-04T03:48:00.363Z,2.2
2023-01-04T03:52:00.399Z,2.0
2023-01-04T03:56:00.373Z,2.0
2023-01-04T04:00:00.396Z,2.1
2023-01-04T04:04:01.577Z,2.1
2023-01-04T04:08:00.396Z,2.1
2023-01-04T04:12:00.445Z,2.2
2023-01-04T04:16:00.441Z,2.1
2023-01-04T04:20:00.437Z,2.1
2023-01-04T04:24:00.430Z,2.1
2023-01-04T04:28:00.389Z,2.2
2023-01-04T04:32:00.505Z,2.2
2023-01-04T04:36:00.387Z,2.0
2023-01-04T04:40:00.416Z,2.2
2023-01-04T04:44:00.423Z,2.2
2023-01-04T04:48:00.388Z,2.2
2023-01-04T04:52:00.396Z,2.2
2023-01-04T04:56:00.383Z,2.2
2023-01-04T05:00:00.455Z,2.3
2023-01-04T05:04:00.412Z,2.3
2023-01-04T05:08:00.386Z,2.5
2023-01-04T05:12:00.409Z,2.4
2023-01-04T05:16:00.456Z,2.4
2023-01-04T05:20:00.419Z,2.6
2023-01-04T05:24:00.426Z,2.7
2023-01-04T05:28:00.413Z,2.7
2023-01-04T05:32:00.458Z,2.8
2023-01-04T05:36:00.402Z,2.9
2023-01-04T05:40:00.413Z,2.9
2023-01-04T05:44:00.404Z,2.8
2023-01-04T05:48:00.405Z,2.9
2023-01-04T05:52:00.407Z,3.1
2023-01-04T05:56:00.389Z,3.1
2023-01-04T06:00:00.411Z,3.1
2023-01-04T06:04:00.442Z,3.0
2023-01-04T06:08:00.406Z,3.2
2023-01-04T06:12:00.404Z,3.3
2023-01-04T06:16:00.411Z,3.3
2023-01-04T06:20:00.407Z,3.6
2023-01-04T06:24:00.406Z,3.6
2023-01-04T06:28:00.393Z,3.8
2023-01-04T06:32:00.383Z,3.8
2023-01-04T06:36:00.414Z,3.8
2023-01-04T06:40:00.419Z,3.9
2023-01-04T06:44:00.390Z,3.8
2023-01-04T06:48:03.419Z,3.8
2023-01-04T06:52:00.389Z,4.1
2023-01-04T06:56:00.405Z,4.2
2023-01-04T07:00:00.408Z,4.7
2023-01-04T07:04:00.449Z,4.9
2023-01-04T07:08:07.408Z,5.2
2023-01-04T07:12:00.386Z,5.4
2023-01-04T07:16:00.486Z,5.4
2023-01-04T07:20:00.399Z,5.4
2023-01-04T07:24:00.422Z,5.7
2023-01-04T07:28:00.414Z,6.0
2023-01-04T07:32:00.392Z,6.3
2023-01-04T07:36:00.389Z,6.4
2023-01-04T07:40:00.467Z,6.4
2023-01-04T07:44:00.388Z,6.4
2023-01-04T07:48:00.386Z,6.4
2023-01-04T07:52:00.420Z,6.3
2023-01-04T07:56:00.414Z,6.3
2023-01-04T08:00:00.393Z,6.1
2023-01-04T08:04:00.483Z,6.1
2023-01-04T08:08:00.395Z,6.1
2023-01-04T08:12:00.398Z,6.1
2023-01-04T08:16:00.458Z,6.1
2023-01-04T08:20:00.369Z,6.2
2023-01-04T08:24:00.396Z,6.2
2023-01-04T08:28:00.370Z,6.2
2023-01-04T08:32:00.385Z,6.2
2023-01-04T08:36:00.365Z,6.2
2023-01-04T08:40:00.395Z,6.3
2023-01-04T08:44:00.364Z,6.3
2023-01-04T08:48:00.382Z,6.4
2023-01-04T08:52:00.403Z,6.4
2023-01-04T08:56:00.362Z,6.3
2023-01-04T09:00:00.395Z,6.4
2023-01-04T09:04:00.520Z,6.4
2023-01-04T09:08:00.407Z,6.4
2023-01-04T09:12:00.394Z,6.4
2023-01-04T09:16:00.451Z,6.4
2023-01-04T09:20:00.363Z,6.5
2023-01-04T09:24:00.406Z,6.5
2023-01-04T09:28:00.390Z,6.5
2023-01-04T09:32:00.491Z,6.5
2023-01-04T09:36:00.362Z,6.5
2023-01-04T09:40:00.394Z,6.5
2023-01-04T09:44:00.383Z,6.5
2023-01-04T09:48:00.378Z,6.6
2023-01-04T09:52:00.372Z,6.6
2023-01-04T09:56:00.398Z,6.6
2023-01-04T10:00:00.370Z,6.6
2023-01-04T10:04:00.375Z,6.6
2023-01-04T10:08:00.392Z,6.7
2023-01-04T10:12:00.368Z,6.7
2023-01-04T10:16:00.461Z,6.7
2023-01-04T10:24:00.405Z,6.9
2023-01-04T10:28:00.370Z,6.9
2023-01-04T10:32:00.443Z,6.9
2023-01-04T10:36:00.395Z,6.8
2023-01-04T10:40:00.386Z,6.8
2023-01-04T10:44:10.598Z,6.8
2023-01-04T10:48:00.396Z,6.8
2023-01-04T10:52:00.368Z,6.8
2023-01-04T10:56:24.168Z,6.8
2023-01-04T11:00:00.434Z,6.8
2023-01-04T11:04:00.381Z,6.8
2023-01-04T11:08:00.413Z,6.8
2023-01-04T11:12:00.378Z,6.8
2023-01-04T11:16:00.499Z,6.9
2023-01-04T11:20:00.428Z,7.0
2023-01-04T11:24:22.038Z,7.0
2023-01-04T11:28:00.369Z,7.1
2023-01-04T11:32:00.452Z,7.2
2023-01-04T11:36:00.387Z,7.2
2023-01-04T11:40:00.360Z,7.3
2023-01-04T11:44:00.387Z,7.3
2023-01-04T11:48:00.380Z,7.4
2023-01-04T11:52:00.378Z,7.4
2023-01-04T11:56:00.371Z,7.4
2023-01-04T12:00:00.410Z,7.5
2023-01-04T12:04:00.387Z,7.5
2023-01-04T12:08:00.389Z,7.6
2023-01-04T12:12:00.371Z,7.5
2023-01-04T12:16:00.377Z,7.4
2023-01-04T12:20:00.391Z,7.5
2023-01-04T12:24:00.381Z,7.6
2023-01-04T12:28:00.387Z,7.6
2023-01-04T12:32:00.376Z,7.6
2023-01-04T12:36:00.387Z,7.5
2023-01-04T12:40:00.404Z,7.6
2023-01-04T12:44:00.392Z,7.6
2023-01-04T12:48:00.392Z,7.6
2023-01-04T12:52:20.836Z,7.6
2023-01-04T12:56:00.429Z,7.6
2023-01-04T13:00:00.392Z,7.6
2023-01-04T13:04:05.106Z,7.6
2023-01-04T13:08:00.368Z,7.6
2023-01-04T13:12:00.410Z,7.5
2023-01-04T13:16:00.406Z,7.6
2023-01-04T13:20:00.376Z,7.5
2023-01-04T13:24:00.377Z,7.5
2023-01-04T13:28:00.371Z,7.5
2023-01-04T13:32:00.387Z,7.5
2023-01-04T13:36:00.460Z,7.6
2023-01-04T13:40:00.417Z,7.6
2023-01-04T13:44:00.378Z,7.6
2023-01-04T13:48:00.391Z,7.6
2023-01-04T13:52:18.319Z,7.6
2023-01-04T13:56:00.412Z,7.7
2023-01-04T14:00:00.373Z,7.7
2023-01-04T14:04:00.377Z,7.8
2023-01-04T14:08:00.424Z,7.7
2023-01-04T14:12:06.656Z,7.8
2023-01-04T14:16:00.488Z,7.8
2023-01-04T14:20:00.376Z,7.8
2023-01-04T14:24:00.411Z,7.9
2023-01-04T14:28:00.427Z,7.9
2023-01-04T14:32:00.383Z,7.9
2023-01-04T14:36:00.405Z,8.0
2023-01-04T14:40:00.366Z,8.0
2023-01-04T14:44:00.413Z,8.0
2023-01-04T14:48:00.371Z,8.0
2023-01-04T14:52:00.415Z,8.1
2023-01-04T14:56:00.742Z,8.1
2023-01-04T15:00:00.387Z,8.0
2023-01-04T15:04:00.555Z,8.1
2023-01-04T15:08:00.395Z,8.1
2023-01-04T15:12:00.388Z,8.2
2023-01-04T15:16:00.465Z,8.2
2023-01-04T15:20:00.403Z,8.2
2023-01-04T15:24:00.386Z,8.2
2023-01-04T15:28:00.434Z,8.3
2023-01-04T15:32:00.754Z,8.3
2023-01-04T15:36:00.420Z,8.3
2023-01-04T15:40:03.305Z,8.4
2023-01-04T15:44:00.385Z,8.4
2023-01-04T15:48:00.404Z,8.4
2023-01-04T15:52:00.365Z,8.5
2023-01-04T15:56:00.420Z,8.4
2023-01-04T16:00:00.429Z,8.5
2023-01-04T16:04:00.417Z,8.5
2023-01-04T16:08:00.379Z,8.5
2023-01-04T16:12:00.381Z,8.5
2023-01-04T16:16:00.736Z,8.5
2023-01-04T16:20:00.394Z,8.6
2023-01-04T16:24:09.258Z,8.7
2023-01-04T16:28:00.423Z,8.7
2023-01-04T16:32:00.533Z,8.7
2023-01-04T16:36:00.372Z,8.7
2023-01-04T16:40:08.682Z,8.7
2023-01-04T16:44:00.402Z,8.6
2023-01-04T16:48:00.445Z,8.6
2023-01-04T16:52:00.421Z,8.7
2023-01-04T16:56:00.383Z,8.6
2023-01-04T17:00:00.493Z,8.7
2023-01-04T17:04:00.418Z,8.7
2023-01-04T17:08:00.444Z,8.6
2023-01-04T17:16:00.440Z,8.7
2023-01-04T17:20:00.381Z,8.8
2023-01-04T17:24:00.444Z,8.8
2023-01-04T17:28:00.411Z,8.9
2023-01-04T17:32:00.474Z,8.8
2023-01-04T17:36:00.399Z,8.7
2023-01-04T17:40:00.379Z,8.7
2023-01-04T17:44:00.444Z,8.8
2023-01-04T17:48:00.390Z,8.9
2023-01-04T17:52:00.454Z,9.0
2023-01-04T17:56:00.492Z,9.0
2023-01-04T18:00:00.438Z,9.1
2023-01-04T18:04:00.426Z,9.1
2023-01-04T18:08:00.428Z,9.2
2023-01-04T18:12:00.409Z,9.3
2023-01-04T18:16:22.392Z,9.3
2023-01-04T18:20:00.365Z,9.3
2023-01-04T18:28:00.391Z,9.4
2023-01-04T18:32:00.466Z,9.5
2023-01-04T18:36:00.378Z,9.6
2023-01-04T18:40:00.461Z,9.6
2023-01-04T18:44:22.626Z,9.7
2023-01-04T18:48:00.395Z,9.8
2023-01-04T18:52:00.492Z,9.9
2023-01-04T18:56:00.381Z,9.8
2023-01-04T19:00:00.437Z,9.9
2023-01-04T19:04:00.390Z,9.9
2023-01-04T19:08:00.400Z,9.7
2023-01-04T19:12:00.397Z,9.6
2023-01-04T19:16:00.406Z,9.7
2023-01-04T19:20:00.387Z,9.7
2023-01-04T19:24:00.385Z,9.7
2023-01-04T19:28:00.423Z,9.8
2023-01-04T19:32:00.366Z,9.8
2023-01-04T19:36:00.409Z,9.7
2023-01-04T19:40:00.395Z,9.9
2023-01-04T19:44:00.398Z,10.0
2023-01-04T19:48:00.413Z,10.0
2023-01-04T19:52:00.424Z,9.9
2023-01-04T19:56:00.384Z,10.0
2023-01-04T20:00:00.396Z,10.1
2023-01-04T20:04:00.423Z,10.1
2023-01-04T20:08:00.388Z,10.2
2023-01-04T20:12:00.393Z,10.1
2023-01-04T20:16:00.396Z,10.2
2023-01-04T20:20:00.358Z,10.1
2023-01-04T20:24:00.401Z,10.1
2023-01-04T20:28:00.375Z,10.1
2023-01-04T20:32:00.372Z,10.2
2023-01-04T20:36:00.390Z,10.3
2023-01-04T20:40:00.392Z,10.3
2023-01-04T20:44:00.417Z,10.2
2023-01-04T20:48:00.381Z,10.1
2023-01-04T20:52:00.376Z,10.0
2023-01-04T20:56:00.401Z,10.0
2023-01-04T21:00:00.431Z,10.1
2023-01-04T21:04:00.388Z,9.9
2023-01-04T21:08:00.387Z,10.0
2023-01-04T21:12:04.938Z,10.1
2023-01-04T21:16:00.471Z,10.1
2023-01-04T21:20:00.401Z,10.1
2023-01-04T21:24:00.385Z,10.1
2023-01-04T21:28:00.387Z,10.1
2023-01-04T21:32:00.389Z,10.0
2023-01-04T21:36:00.388Z,10.1
2023-01-04T21:40:00.465Z,10.0
2023-01-04T21:44:00.451Z,10.0
2023-01-04T21:48:00.387Z,10.1
2023-01-04T21:52:00.440Z,10.0
2023-01-04T21:56:00.428Z,10.1
2023-01-04T22:00:00.441Z,10.1
2023-01-04T22:04:00.449Z,10.1
2023-01-04T22:08:00.412Z,10.0
2023-01-04T22:12:00.410Z,9.9
2023-01-04T22:16:00.500Z,9.7
2023-01-04T22:20:00.417Z,9.7
2023-01-04T22:24:00.453Z,9.6
2023-01-04T22:28:00.407Z,9.6
2023-01-04T22:32:00.376Z,9.5
2023-01-04T22:36:00.403Z,9.5
2023-01-04T22:40:00.437Z,9.5
2023-01-04T22:44:00.405Z,9.6
2023-01-04T22:48:00.397Z,9.6
2023-01-04T22:52:00.479Z,9.6
2023-01-04T22:56:18.535Z,9.7
2023-01-04T23:00:00.416Z,9.7
2023-01-04T23:04:00.556Z,9.7
2023-01-04T23:08:00.447Z,9.7
2023-01-04T23:12:00.453Z,9.8
2023-01-04T23:16:00.479Z,9.7
2023-01-04T23:20:00.384Z,9.7
2023-01-04T23:24:00.466Z,9.7
2023-01-04T23:28:00.391Z,9.7
2023-01-04T23:32:00.583Z,9.7
2023-01-04T23:36:00.374Z,9.6
2023-01-04T23:40:00.672Z,9.6
2023-01-04T23:44:00.419Z,9.6
2023-01-04T23:48:00.433Z,9.5
2023-01-04T23:52:00.403Z,9.3
2023-01-04T23:56:00.396Z,9.4
